createdAt,value
2018-04-10T00:01:25.954Z,51.40
2018-04-10T00:03:54.127Z,51.60
2018-04-10T00:06:21.699Z,51.90
2018-04-10T00:08:49.312Z,52.00
2018-04-10T00:11:17.676Z,52.10
2018-04-10T00:13:45.988Z,52.10
2018-04-10T00:16:13.598Z,52.00
2018-04-10T00:18:41.151Z,52.10
2018-04-10T00:21:08.733Z,52.20
2018-04-10T00:23:37.068Z,52.60
2018-04-10T00:26:04.654Z,52.60
2018-04-10T00:28:32.253Z,52.50
2018-04-10T00:30:59.813Z,52.40
2018-04-10T00:33:28.187Z,52.50
2018-04-10T00:35:57.070Z,52.50
2018-04-10T00:38:24.610Z,52.50
2018-04-10T00:40:52.215Z,52.50
2018-04-10T00:43:19.767Z,52.60
2018-04-10T00:45:47.366Z,52.90
2018-04-10T00:48:14.951Z,53.20
2018-04-10T00:50:42.582Z,53.10
2018-04-10T00:53:21.892Z,53.10
2018-04-10T00:55:49.455Z,53.00
2018-04-10T00:58:17.069Z,52.90
2018-04-10T01:00:44.611Z,52.80
2018-04-10T01:03:12.187Z,52.50
2018-04-10T01:05:39.735Z,52.60
2018-04-10T01:08:07.301Z,52.50
2018-04-10T01:10:34.891Z,52.60
2018-04-10T01:13:02.483Z,52.90
2018-04-10T01:15:30.045Z,52.90
2018-04-10T01:17:58.548Z,52.90
2018-04-10T01:20:26.096Z,52.80
2018-04-10T01:22:53.683Z,53.00
2018-04-10T01:25:22.030Z,53.00
2018-04-10T01:27:49.573Z,53.00
2018-04-10T01:30:17.153Z,52.90
2018-04-10T01:32:44.694Z,53.00
2018-04-10T01:35:12.270Z,53.00
2018-04-10T01:37:39.809Z,53.40
2018-04-10T01:40:07.390Z,53.60
2018-04-10T01:42:34.995Z,53.50
2018-04-10T01:45:02.561Z,53.40
2018-04-10T01:47:30.136Z,54.00
2018-04-10T01:49:57.718Z,53.50
2018-04-10T01:52:25.425Z,53.60
2018-04-10T01:54:52.966Z,53.80
2018-04-10T01:57:20.562Z,53.70
2018-04-10T01:59:48.118Z,54.00
2018-04-10T02:02:15.676Z,53.80
2018-04-10T02:04:46.246Z,53.90
2018-04-10T02:07:13.771Z,53.80
2018-04-10T02:09:41.485Z,53.90
2018-04-10T02:12:09.029Z,53.90
2018-04-10T02:14:36.590Z,54.00
2018-04-10T02:17:04.167Z,54.00
2018-04-10T02:19:31.711Z,54.10
2018-04-10T02:21:59.304Z,54.10
2018-04-10T02:24:26.899Z,53.90
2018-04-10T02:26:54.441Z,54.10
2018-04-10T02:29:22.822Z,54.20
2018-04-10T02:31:50.399Z,54.20
2018-04-10T02:34:18.695Z,54.30
2018-04-10T02:36:46.245Z,54.30
2018-04-10T02:39:14.612Z,54.30
2018-04-10T02:41:42.912Z,54.70
2018-04-10T02:44:10.487Z,54.70
2018-04-10T02:46:38.020Z,54.40
2018-04-10T02:49:05.580Z,54.50
2018-04-10T02:54:15.074Z,54.30
2018-04-10T02:56:42.631Z,54.40
2018-04-10T02:59:10.202Z,54.70
2018-04-10T03:01:37.764Z,54.70
2018-04-10T03:04:05.327Z,54.60
2018-04-10T03:06:32.920Z,54.50
2018-04-10T03:09:01.251Z,54.40
2018-04-10T03:11:28.826Z,54.40
2018-04-10T03:13:56.414Z,54.50
2018-04-10T03:16:23.983Z,54.60
2018-04-10T03:18:52.321Z,54.50
2018-04-10T03:21:19.923Z,54.50
2018-04-10T03:23:48.268Z,54.90
2018-04-10T03:26:15.825Z,54.90
2018-04-10T03:28:43.421Z,54.90
2018-04-10T03:31:11.850Z,54.90
2018-04-10T03:33:39.426Z,54.80
2018-04-10T03:36:06.971Z,54.70
2018-04-10T03:38:34.546Z,54.70
2018-04-10T03:41:02.066Z,55.00
2018-04-10T03:43:29.603Z,55.10
2018-04-10T03:45:57.174Z,55.10
2018-04-10T03:48:25.594Z,55.10
2018-04-10T03:50:53.172Z,55.00
2018-04-10T03:53:20.714Z,54.90
2018-04-10T03:55:48.295Z,54.70
2018-04-10T03:58:15.847Z,54.60
2018-04-10T04:00:43.410Z,54.50
2018-04-10T04:03:11.077Z,54.50
2018-04-10T04:05:38.612Z,54.70
2018-04-10T04:08:06.154Z,54.80
2018-04-10T04:10:33.675Z,55.00
2018-04-10T04:13:01.245Z,54.80
2018-04-10T04:15:28.783Z,55.00
2018-04-10T04:17:56.482Z,55.10
2018-04-10T04:20:35.769Z,55.30
2018-04-10T04:23:04.440Z,54.10
2018-04-10T04:25:32.074Z,55.00
2018-04-10T04:27:59.627Z,55.50
2018-04-10T04:30:28.877Z,55.60
2018-04-10T04:32:56.420Z,55.50
2018-04-10T04:35:24.035Z,55.50
2018-04-10T04:37:51.624Z,55.60
2018-04-10T04:40:19.163Z,55.60
2018-04-10T04:42:46.924Z,55.50
2018-04-10T04:45:14.485Z,55.80
2018-04-10T04:47:42.066Z,56.00
2018-04-10T04:50:09.623Z,56.00
2018-04-10T04:52:37.156Z,55.80
2018-04-10T04:55:04.762Z,55.70
2018-04-10T04:57:32.329Z,55.70
2018-04-10T04:59:59.901Z,56.10
2018-04-10T05:02:27.429Z,56.10
2018-04-10T05:04:54.987Z,56.30
2018-04-10T05:07:22.560Z,56.30
2018-04-10T05:09:50.126Z,56.40
2018-04-10T05:12:17.957Z,56.10
2018-04-10T05:14:45.539Z,56.00
2018-04-10T05:17:13.451Z,56.00
2018-04-10T05:19:40.967Z,56.00
2018-04-10T05:22:08.546Z,56.10
2018-04-10T05:24:36.106Z,56.10
2018-04-10T05:27:03.729Z,56.00
2018-04-10T05:29:31.392Z,56.30
2018-04-10T05:31:58.947Z,56.30
2018-04-10T05:34:26.516Z,56.20
2018-04-10T05:36:54.090Z,56.10
2018-04-10T05:39:21.940Z,56.20
2018-04-10T05:41:49.485Z,56.10
2018-04-10T05:44:17.045Z,56.00
2018-04-10T05:46:44.615Z,55.90
2018-04-10T05:49:12.191Z,56.10
2018-04-10T05:51:39.929Z,56.10
2018-04-10T05:54:08.359Z,56.30
2018-04-10T05:56:35.891Z,56.20
2018-04-10T05:59:03.563Z,56.30
2018-04-10T06:01:31.093Z,56.50
2018-04-10T06:03:58.709Z,56.50
2018-04-10T06:06:26.211Z,56.40
2018-04-10T06:08:54.579Z,56.30
2018-04-10T06:11:22.994Z,56.30
2018-04-10T06:13:50.795Z,56.20
2018-04-10T06:16:18.370Z,56.30
2018-04-10T06:18:45.945Z,56.40
2018-04-10T06:21:13.672Z,56.70
2018-04-10T06:23:41.489Z,56.50
2018-04-10T06:26:09.057Z,56.50
2018-04-10T06:28:36.740Z,56.60
2018-04-10T06:31:04.317Z,56.80
2018-04-10T06:33:31.857Z,56.50
2018-04-10T06:35:59.398Z,56.20
2018-04-10T06:38:26.947Z,55.80
2018-04-10T06:40:55.134Z,55.60
2018-04-10T06:43:22.674Z,55.60
2018-04-10T06:45:51.599Z,55.40
2018-04-10T06:48:19.683Z,55.40
2018-04-10T06:50:47.210Z,55.30
2018-04-10T06:53:14.976Z,55.10
2018-04-10T06:55:42.761Z,55.00
2018-04-10T06:58:10.399Z,54.60
2018-04-10T07:00:37.949Z,54.60
2018-04-10T07:03:05.510Z,54.40
2018-04-10T07:05:33.096Z,54.40
2018-04-10T07:08:00.760Z,54.80
2018-04-10T07:10:28.336Z,54.90
2018-04-10T07:12:56.665Z,54.80
2018-04-10T07:15:24.238Z,54.60
2018-04-10T07:17:52.410Z,54.80
2018-04-10T07:20:20.146Z,54.70
2018-04-10T07:22:48.346Z,54.80
2018-04-10T07:25:15.932Z,54.90
2018-04-10T07:27:44.156Z,54.70
2018-04-10T07:30:11.957Z,54.80
2018-04-10T07:32:40.350Z,54.70
2018-04-10T07:35:07.931Z,54.70
2018-04-10T07:37:35.493Z,54.70
2018-04-10T07:40:03.149Z,54.50
2018-04-10T07:42:30.778Z,54.40
2018-04-10T07:44:58.542Z,54.20
2018-04-10T07:47:26.123Z,54.00
2018-04-10T07:49:53.676Z,53.90
2018-04-10T07:52:21.269Z,53.80
2018-04-10T07:54:49.006Z,53.90
2018-04-10T07:57:16.570Z,53.80
2018-04-10T07:59:44.204Z,53.70
2018-04-10T08:02:11.827Z,53.70
2018-04-10T08:04:39.502Z,53.30
2018-04-10T08:07:07.078Z,53.20
2018-04-10T08:09:35.520Z,53.20
2018-04-10T08:12:03.076Z,53.30
2018-04-10T08:14:30.606Z,53.00
2018-04-10T08:16:58.280Z,52.90
2018-04-10T08:19:25.890Z,52.80
2018-04-10T08:21:53.509Z,52.80
2018-04-10T08:24:21.370Z,52.70
2018-04-10T08:26:49.749Z,52.60
2018-04-10T08:29:17.706Z,52.50
2018-04-10T08:31:45.321Z,52.30
2018-04-10T08:34:12.943Z,52.80
2018-04-10T08:36:40.780Z,52.30
2018-04-10T08:39:08.404Z,52.90
2018-04-10T08:41:36.034Z,52.10
2018-04-10T08:44:03.603Z,52.10
2018-04-10T08:46:31.255Z,52.30
2018-04-10T08:48:58.925Z,52.40
2018-04-10T08:51:26.644Z,52.20
2018-04-10T08:53:54.179Z,52.30
2018-04-10T08:56:22.538Z,52.30
2018-04-10T08:58:50.070Z,52.30
2018-04-10T09:01:17.692Z,52.20
2018-04-10T09:03:45.222Z,52.20
2018-04-10T09:06:13.009Z,52.10
2018-04-10T09:08:41.363Z,52.10
2018-04-10T09:11:08.910Z,52.00
2018-04-10T09:13:36.483Z,52.00
2018-04-10T09:16:04.074Z,52.00
2018-04-10T09:18:32.406Z,51.80
2018-04-10T09:21:00.057Z,51.70
2018-04-10T09:23:27.864Z,52.20
2018-04-10T09:25:55.547Z,51.50
2018-04-10T09:28:23.470Z,52.10
2018-04-10T09:30:51.126Z,51.50
2018-04-10T09:33:18.685Z,51.50
2018-04-10T09:35:46.397Z,51.20
2018-04-10T09:38:14.070Z,51.20
2018-04-10T09:40:41.639Z,51.10
2018-04-10T09:43:09.188Z,51.00
2018-04-10T09:45:36.746Z,50.70
2018-04-10T09:48:04.266Z,50.50
2018-04-10T09:50:32.163Z,50.20
2018-04-10T09:53:00.540Z,50.20
2018-04-10T09:55:28.960Z,50.10
2018-04-10T09:57:56.533Z,50.10
2018-04-10T10:00:29.723Z,50.00
2018-04-10T10:02:57.912Z,50.30
2018-04-10T10:05:26.333Z,50.10
2018-04-10T10:07:54.154Z,50.10
2018-04-10T10:10:21.675Z,50.00
2018-04-10T10:12:49.229Z,49.90
2018-04-10T10:15:16.786Z,49.90
2018-04-10T10:17:45.130Z,50.00
2018-04-10T10:20:12.693Z,49.70
2018-04-10T10:22:40.317Z,49.50
2018-04-10T10:25:07.864Z,49.40
2018-04-10T10:27:35.466Z,49.20
2018-04-10T10:30:03.136Z,48.70
2018-04-10T10:32:30.735Z,48.90
2018-04-10T10:34:58.314Z,48.70
2018-04-10T10:37:25.970Z,48.70
2018-04-10T10:39:53.742Z,48.60
2018-04-10T10:42:21.631Z,48.10
2018-04-10T10:44:49.187Z,48.30
2018-04-10T10:47:16.810Z,48.20
2018-04-10T10:49:44.477Z,48.80
2018-04-10T10:52:12.152Z,48.20
2018-04-10T10:54:39.698Z,48.20
2018-04-10T10:57:07.258Z,48.30
2018-04-10T10:59:35.135Z,48.40
2018-04-10T11:02:02.704Z,49.20
2018-04-10T11:04:30.254Z,48.40
2018-04-10T11:06:57.801Z,48.50
2018-04-10T11:09:25.366Z,48.70
2018-04-10T11:11:52.894Z,48.60
2018-04-10T11:14:20.601Z,48.40
2018-04-10T11:16:48.221Z,48.20
2018-04-10T11:19:16.554Z,47.70
2018-04-10T11:21:44.453Z,47.70
2018-04-10T11:24:12.822Z,47.90
2018-04-10T11:26:40.500Z,47.80
2018-04-10T11:29:08.063Z,47.80
2018-04-10T11:31:36.387Z,47.80
2018-04-10T11:34:03.987Z,47.80
2018-04-10T11:36:31.547Z,47.60
2018-04-10T11:38:59.106Z,47.50
2018-04-10T11:41:26.669Z,47.80
2018-04-10T11:43:54.291Z,48.00
2018-04-10T11:46:27.134Z,48.20
2018-04-10T11:48:54.753Z,48.10
2018-04-10T11:51:22.453Z,48.10
2018-04-10T11:53:50.097Z,48.00
2018-04-10T11:56:17.664Z,48.10
2018-04-10T11:58:45.202Z,47.80
2018-04-10T12:01:12.817Z,47.70
2018-04-10T12:03:40.386Z,48.50
2018-04-10T12:06:07.958Z,47.70
2018-04-10T12:08:35.562Z,47.50
2018-04-10T12:11:04.011Z,47.30
2018-04-10T12:13:32.188Z,47.30
2018-04-10T12:16:00.664Z,47.50
2018-04-10T12:18:28.233Z,47.50
2018-04-10T12:20:55.805Z,47.40
2018-04-10T12:23:23.463Z,46.90
2018-04-10T12:25:51.206Z,46.90
2018-04-10T12:28:18.957Z,47.10
2018-04-10T12:30:46.520Z,47.20
2018-04-10T12:33:14.102Z,47.10
2018-04-10T12:35:41.729Z,47.00
2018-04-10T12:38:09.258Z,47.20
2018-04-10T12:40:37.020Z,47.30
2018-04-10T12:43:04.711Z,47.20
2018-04-10T12:45:32.710Z,47.20
2018-04-10T12:48:00.273Z,46.60
2018-04-10T12:50:27.828Z,46.50
2018-04-10T12:52:55.410Z,46.70
2018-04-10T12:55:22.945Z,46.80
2018-04-10T12:57:50.494Z,47.10
2018-04-10T13:00:18.084Z,47.20
2018-04-10T13:02:45.671Z,47.40
2018-04-10T13:05:13.349Z,47.30
2018-04-10T13:07:41.006Z,47.30
2018-04-10T13:10:08.833Z,47.50
2018-04-10T13:12:36.480Z,47.40
2018-04-10T13:15:04.054Z,47.50
2018-04-10T13:17:31.594Z,47.40
2018-04-10T13:19:59.167Z,47.40
2018-04-10T13:22:26.687Z,47.30
2018-04-10T13:24:55.027Z,47.50
2018-04-10T13:27:22.566Z,47.50
2018-04-10T13:29:50.140Z,47.40
2018-04-10T13:32:17.733Z,47.10
2018-04-10T13:34:46.116Z,47.00
2018-04-10T13:37:14.457Z,47.00
2018-04-10T13:39:42.006Z,46.90
2018-04-10T13:42:09.774Z,46.60
2018-04-10T13:44:37.588Z,46.50
2018-04-10T13:47:06.123Z,46.10
2018-04-10T13:49:33.918Z,45.60
2018-04-10T13:52:02.320Z,44.70
2018-04-10T13:54:29.946Z,44.60
2018-04-10T13:56:57.568Z,44.60
2018-04-10T13:59:25.172Z,44.70
2018-04-10T14:01:52.722Z,44.80
2018-04-10T14:04:20.892Z,44.70
2018-04-10T14:06:48.735Z,44.60
2018-04-10T14:09:16.377Z,44.60
2018-04-10T14:11:43.944Z,44.20
2018-04-10T14:14:11.612Z,44.40
2018-04-10T14:16:39.334Z,45.30
2018-04-10T14:19:06.942Z,44.60
2018-04-10T14:21:34.579Z,44.70
2018-04-10T14:24:02.134Z,44.80
2018-04-10T14:26:30.569Z,45.10
2018-04-10T14:28:58.089Z,45.20
2018-04-10T14:31:25.611Z,45.60
2018-04-10T14:33:53.970Z,45.90
2018-04-10T14:36:21.507Z,45.90
2018-04-10T14:38:49.179Z,45.60
2018-04-10T14:41:16.721Z,45.20
2018-04-10T14:43:44.312Z,44.80
2018-04-10T14:46:11.881Z,44.80
2018-04-10T14:48:40.273Z,43.60
2018-04-10T14:51:08.621Z,44.90
2018-04-10T14:53:36.173Z,44.90
2018-04-10T14:56:03.744Z,44.90
2018-04-10T14:58:31.384Z,45.00
2018-04-10T15:00:58.965Z,45.10
2018-04-10T15:03:26.620Z,45.40
2018-04-10T15:05:54.186Z,45.50
2018-04-10T15:08:21.716Z,46.00
2018-04-10T15:10:49.395Z,45.90
2018-04-10T15:13:17.828Z,46.30
2018-04-10T15:15:45.486Z,46.20
2018-04-10T15:18:13.157Z,45.90
2018-04-10T15:20:40.813Z,46.10
2018-04-10T15:23:08.438Z,46.10
2018-04-10T15:25:35.994Z,46.10
2018-04-10T15:28:03.651Z,46.10
2018-04-10T15:30:31.200Z,46.30
2018-04-10T15:32:58.813Z,46.70
2018-04-10T15:35:27.146Z,47.10
2018-04-10T15:37:54.721Z,47.10
2018-04-10T15:40:22.430Z,47.10
2018-04-10T15:42:50.035Z,47.30
2018-04-10T15:45:17.704Z,47.10
2018-04-10T15:47:46.730Z,47.30
2018-04-10T15:50:14.263Z,47.30
2018-04-10T15:52:41.916Z,47.40
2018-04-10T15:55:09.524Z,47.50
2018-04-10T15:57:37.169Z,47.50
2018-04-10T16:00:04.807Z,47.60
2018-04-10T16:02:32.381Z,47.70
2018-04-10T16:04:59.977Z,47.70
2018-04-10T16:07:27.573Z,47.80
2018-04-10T16:09:55.114Z,47.60
2018-04-10T16:12:22.745Z,47.40
2018-04-10T16:14:51.179Z,47.30
2018-04-10T16:17:18.816Z,47.30
2018-04-10T16:19:46.345Z,47.40
2018-04-10T16:22:14.742Z,47.30
2018-04-10T16:24:42.314Z,47.30
2018-04-10T16:27:09.871Z,47.30
2018-04-10T16:29:37.378Z,47.40
2018-04-10T16:32:04.946Z,46.00
2018-04-10T16:34:32.534Z,45.70
2018-04-10T16:37:00.491Z,45.30
2018-04-10T16:39:28.092Z,45.30
2018-04-10T16:41:55.658Z,45.40
2018-04-10T16:44:23.325Z,44.80
2018-04-10T16:46:50.925Z,44.50
2018-04-10T16:49:18.742Z,44.50
2018-04-10T16:51:46.425Z,44.00
2018-04-10T16:54:13.998Z,44.10
2018-04-10T16:56:41.609Z,44.30
2018-04-10T16:59:09.125Z,44.90
2018-04-10T17:01:36.722Z,45.70
2018-04-10T17:04:04.273Z,45.60
2018-04-10T17:06:31.803Z,45.00
2018-04-10T17:08:59.362Z,45.10
2018-04-10T17:11:26.920Z,45.60
2018-04-10T17:13:54.527Z,46.20
2018-04-10T17:16:22.232Z,46.80
2018-04-10T17:18:49.818Z,47.20
2018-04-10T17:21:17.401Z,47.30
2018-04-10T17:23:45.039Z,47.50
2018-04-10T17:26:12.576Z,48.00
2018-04-10T17:28:40.369Z,48.10
2018-04-10T17:31:08.834Z,48.60
2018-04-10T17:33:36.397Z,48.50
2018-04-10T17:36:04.049Z,48.50
2018-04-10T17:38:31.582Z,48.50
2018-04-10T17:40:59.201Z,48.50
2018-04-10T17:43:27.502Z,48.60
2018-04-10T17:45:55.035Z,48.60
2018-04-10T17:48:23.379Z,49.10
2018-04-10T17:50:51.059Z,49.10
2018-04-10T17:53:18.674Z,49.30
2018-04-10T17:55:46.334Z,49.70
2018-04-10T17:58:13.868Z,50.20
2018-04-10T18:00:41.451Z,50.60
2018-04-10T18:03:09.022Z,51.00
2018-04-10T18:05:36.566Z,51.20
2018-04-10T18:08:04.185Z,51.40
2018-04-10T18:10:31.777Z,51.80
2018-04-10T18:12:59.305Z,52.40
2018-04-10T18:15:26.829Z,53.20
2018-04-10T18:17:54.726Z,53.70
2018-04-10T18:20:22.237Z,54.50
2018-04-10T18:22:49.853Z,55.30
2018-04-10T18:25:17.386Z,55.90
2018-04-10T18:27:44.926Z,57.00
2018-04-10T18:30:12.592Z,57.10
2018-04-10T18:32:40.135Z,57.20
2018-04-10T18:35:07.718Z,57.80
2018-04-10T18:37:35.273Z,57.80
2018-04-10T18:40:02.841Z,58.10
2018-04-10T18:42:30.459Z,58.80
2018-04-10T18:44:58.018Z,59.20
2018-04-10T18:47:25.557Z,59.40
2018-04-10T18:49:53.105Z,60.00
2018-04-10T18:52:20.614Z,60.00
2018-04-10T18:54:48.171Z,60.50
2018-04-10T18:57:15.708Z,59.60
2018-04-10T18:59:43.296Z,59.70
2018-04-10T19:02:10.847Z,60.50
2018-04-10T19:04:38.425Z,61.20
2018-04-10T19:07:05.999Z,60.60
2018-04-10T19:09:33.545Z,61.40
2018-04-10T19:12:01.177Z,61.40
2018-04-10T19:14:28.763Z,61.60
2018-04-10T19:16:56.386Z,61.30
2018-04-10T19:19:23.953Z,60.70
2018-04-10T19:21:51.545Z,60.90
2018-04-10T19:24:19.461Z,61.40
2018-04-10T19:26:47.797Z,60.50
2018-04-10T19:29:15.347Z,60.50
2018-04-10T19:31:42.931Z,61.20
2018-04-10T19:34:10.459Z,61.80
2018-04-10T19:36:38.039Z,60.00
2018-04-10T19:39:05.563Z,59.70
2018-04-10T19:41:33.118Z,60.00
2018-04-10T19:44:00.637Z,60.40
2018-04-10T19:46:28.224Z,60.70
2018-04-10T19:48:55.752Z,60.70
2018-04-10T19:51:24.079Z,61.70
2018-04-10T19:53:51.613Z,61.70
2018-04-10T19:56:19.188Z,61.60
2018-04-10T19:58:47.510Z,63.40
2018-04-10T20:01:15.078Z,63.30
2018-04-10T20:03:42.618Z,64.20
2018-04-10T20:06:10.207Z,64.40
2018-04-10T20:08:37.789Z,65.10
2018-04-10T20:11:05.378Z,64.70
2018-04-10T20:13:32.965Z,64.40
2018-04-10T20:16:00.521Z,64.50
2018-04-10T20:18:28.312Z,64.40
2018-04-10T20:20:55.916Z,65.00
2018-04-10T20:23:23.476Z,65.10
2018-04-10T20:25:51.071Z,64.50
2018-04-10T20:28:18.626Z,63.50
2018-04-10T20:30:46.186Z,63.50
2018-04-10T20:33:13.760Z,64.60
2018-04-10T20:35:41.320Z,64.60
2018-04-10T20:38:08.905Z,64.20
2018-04-10T20:40:36.461Z,63.60
2018-04-10T20:43:04.029Z,63.90
2018-04-10T20:45:31.554Z,64.10
2018-04-10T20:47:59.111Z,64.30
2018-04-10T20:50:26.638Z,63.40
2018-04-10T20:52:54.198Z,63.70
2018-04-10T20:55:21.761Z,62.60
2018-04-10T20:57:49.287Z,61.70
2018-04-10T21:00:16.845Z,61.60
2018-04-10T21:02:44.405Z,61.20
2018-04-10T21:05:11.965Z,61.60
2018-04-10T21:07:39.527Z,62.10
2018-04-10T21:10:07.757Z,62.90
2018-04-10T21:12:35.307Z,62.20
2018-04-10T21:15:02.822Z,62.60
2018-04-10T21:17:30.456Z,62.00
2018-04-10T21:19:58.145Z,62.20
2018-04-10T21:22:25.738Z,61.60
2018-04-10T21:24:53.258Z,60.70
2018-04-10T21:27:20.816Z,61.00
2018-04-10T21:29:48.376Z,61.80
2018-04-10T21:32:15.938Z,61.50
2018-04-10T21:34:43.449Z,59.00
2018-04-10T21:37:11.002Z,59.10
2018-04-10T21:39:38.547Z,59.40
2018-04-10T21:42:06.870Z,59.30
2018-04-10T21:44:34.400Z,59.30
2018-04-10T21:47:01.961Z,59.80
2018-04-10T21:49:29.511Z,60.40
2018-04-10T21:51:57.060Z,60.10
2018-04-10T21:54:25.388Z,59.80
2018-04-10T21:56:52.920Z,59.80
2018-04-10T21:59:20.463Z,59.80
2018-04-10T22:01:47.992Z,59.50
2018-04-10T22:04:15.550Z,60.50
2018-04-10T22:06:43.089Z,59.60
2018-04-10T22:09:10.599Z,59.30
2018-04-10T22:11:38.155Z,60.00
2018-04-10T22:14:05.676Z,60.30
2018-04-10T22:16:33.253Z,59.50
2018-04-10T22:19:00.827Z,59.10
2018-04-10T22:21:28.353Z,58.70
2018-04-10T22:23:55.916Z,59.30
2018-04-10T22:26:24.366Z,59.50
2018-04-10T22:28:51.881Z,59.60
2018-04-10T22:31:19.405Z,59.40
2018-04-10T22:33:46.910Z,58.70
2018-04-10T22:36:14.471Z,58.30
2018-04-10T22:38:42.007Z,58.20
2018-04-10T22:41:09.554Z,58.20
2018-04-10T22:43:37.130Z,58.90
2018-04-10T22:46:04.677Z,58.40
2018-04-10T22:48:32.206Z,58.40
2018-04-10T22:51:00.196Z,58.00
2018-04-10T22:53:27.774Z,58.80
2018-04-10T22:55:55.302Z,59.50
2018-04-10T22:58:22.920Z,59.10
2018-04-10T23:00:50.446Z,59.30
2018-04-10T23:03:17.997Z,59.30
2018-04-10T23:05:45.583Z,60.00
2018-04-10T23:08:13.102Z,60.20
2018-04-10T23:10:40.669Z,59.20
2018-04-10T23:13:08.213Z,58.90
2018-04-10T23:15:35.879Z,59.00
2018-04-10T23:18:03.384Z,58.30
2018-04-10T23:20:30.951Z,58.20
2018-04-10T23:22:58.754Z,58.10
2018-04-10T23:25:26.380Z,58.50
2018-04-10T23:27:53.939Z,58.60
2018-04-10T23:30:21.498Z,58.00
2018-04-10T23:32:49.818Z,58.30
2018-04-10T23:35:17.370Z,58.20
2018-04-10T23:37:44.904Z,57.80
2018-04-10T23:40:12.467Z,57.90
2018-04-10T23:42:40.094Z,57.90
2018-04-10T23:45:07.715Z,57.30
2018-04-10T23:47:35.223Z,58.00
2018-04-10T23:50:03.566Z,57.40
2018-04-10T23:52:31.126Z,57.30
2018-04-10T23:54:58.677Z,57.60
2018-04-10T23:57:26.199Z,58.00
2018-04-10T23:59:53.761Z,57.30
